sensor_id;sensor_type;location;lat;lon;timestamp;pressure;altitude;pressure_sealevel;temperature;humidity
6859;BME280;3468;42.824;23.240;2023-05-09T00:00:51;68458.75;;;12.02;100.00
6859;BME280;3468;42.824;23.240;2023-05-09T00:03:19;68433.94;;;11.77;100.00
6859;BME280;3468;42.824;23.240;2023-05-09T00:05:46;68450.22;;;11.99;100.00
6859;BME280;3468;42.824;23.240;2023-05-09T00:08:13;68464.31;;;11.98;100.00
6859;BME280;3468;42.824;23.240;2023-05-09T00:10:39;68475.16;;;12.03;100.00
6859;BME280;3468;42.824;23.240;2023-05-09T00:13:06;68467.53;;;12.03;100.00
6859;BME280;3468;42.824;23.240;2023-05-09T00:15:33;68452.81;;;12.15;100.00
6859;BME280;3468;42.824;23.240;2023-05-09T00:18:00;68488.50;;;12.08;100.00
6859;BME280;3468;42.824;23.240;2023-05-09T00:20:28;68490.28;;;12.25;100.00
6859;BME280;3468;42.824;23.240;2023-05-09T00:22:55;68462.09;;;12.27;100.00
6859;BME280;3468;42.824;23.240;2023-05-09T00:25:22;68489.69;;;12.25;100.00
6859;BME280;3468;42.824;23.240;2023-05-09T00:27:49;68503.94;;;12.17;100.00
6859;BME280;3468;42.824;23.240;2023-05-09T00:30:15;68501.19;;;12.35;100.00
6859;BME280;3468;42.824;23.240;2023-05-09T00:32:42;68501.44;;;12.33;100.00
6859;BME280;3468;42.824;23.240;2023-05-09T00:35:09;68499.81;;;12.36;100.00
6859;BME280;3468;42.824;23.240;2023-05-09T00:37:37;68482.13;;;12.40;100.00
6859;BME280;3468;42.824;23.240;2023-05-09T00:40:05;68499.69;;;12.42;100.00
6859;BME280;3468;42.824;23.240;2023-05-09T00:42:33;68509.00;;;12.43;100.00
6859;BME280;3468;42.824;23.240;2023-05-09T00:45:00;68532.47;;;12.44;100.00
6859;BME280;3468;42.824;23.240;2023-05-09T00:47:27;68502.88;;;12.47;100.00
6859;BME280;3468;42.824;23.240;2023-05-09T00:49:55;68537.88;;;12.46;100.00
6859;BME280;3468;42.824;23.240;2023-05-09T00:52:23;68456.19;;;12.13;100.00
6859;BME280;3468;42.824;23.240;2023-05-09T00:54:52;68524.06;;;12.35;100.00
6859;BME280;3468;42.824;23.240;2023-05-09T00:57:20;68510.41;;;12.42;100.00
6859;BME280;3468;42.824;23.240;2023-05-09T00:59:47;68505.81;;;12.38;100.00
6859;BME280;3468;42.824;23.240;2023-05-09T01:02:15;68534.47;;;12.33;100.00
6859;BME280;3468;42.824;23.240;2023-05-09T01:04:43;68479.41;;;12.31;100.00
6859;BME280;3468;42.824;23.240;2023-05-09T01:07:18;68503.41;;;12.32;100.00
6859;BME280;3468;42.824;23.240;2023-05-09T01:09:50;68371.31;;;12.17;100.00
6859;BME280;3468;42.824;23.240;2023-05-09T01:12:28;68522.63;;;12.46;100.00
6859;BME280;3468;42.824;23.240;2023-05-09T01:15:01;68535.50;;;12.55;100.00
6859;BME280;3468;42.824;23.240;2023-05-09T01:17:36;68525.34;;;12.55;100.00
6859;BME280;3468;42.824;23.240;2023-05-09T01:20:11;68506.91;;;12.50;100.00
6859;BME280;3468;42.824;23.240;2023-05-09T01:22:43;68476.22;;;12.41;100.00
6859;BME280;3468;42.824;23.240;2023-05-09T01:25:35;68532.88;;;12.51;100.00
6859;BME280;3468;42.824;23.240;2023-05-09T01:28:12;68468.53;;;12.37;100.00
6859;BME280;3468;42.824;23.240;2023-05-09T01:30:43;68526.03;;;12.34;100.00
6859;BME280;3468;42.824;23.240;2023-05-09T01:33:12;68270.22;;;11.10;100.00
6859;BME280;3468;42.824;23.240;2023-05-09T01:35:43;68548.38;;;12.49;100.00
6859;BME280;3468;42.824;23.240;2023-05-09T01:38:16;68550.31;;;12.48;100.00
6859;BME280;3468;42.824;23.240;2023-05-09T01:40:46;68518.84;;;12.41;100.00
6859;BME280;3468;42.824;23.240;2023-05-09T01:43:15;68808.78;;;12.11;100.00
6859;BME280;3468;42.824;23.240;2023-05-09T01:45:44;68490.97;;;12.30;100.00
6859;BME280;3468;42.824;23.240;2023-05-09T01:48:13;68434.13;;;11.86;100.00
6859;BME280;3468;42.824;23.240;2023-05-09T01:50:42;68546.72;;;12.26;100.00
6859;BME280;3468;42.824;23.240;2023-05-09T01:53:10;68488.31;;;12.26;100.00
6859;BME280;3468;42.824;23.240;2023-05-09T01:55:38;68518.97;;;12.35;100.00
6859;BME280;3468;42.824;23.240;2023-05-09T01:58:06;68521.63;;;12.39;100.00
6859;BME280;3468;42.824;23.240;2023-05-09T02:00:33;68517.13;;;12.39;100.00
6859;BME280;3468;42.824;23.240;2023-05-09T02:03:02;68421.41;;;11.97;100.00
6859;BME280;3468;42.824;23.240;2023-05-09T02:05:30;68532.25;;;12.35;100.00
6859;BME280;3468;42.824;23.240;2023-05-09T02:07:58;68539.16;;;12.41;100.00
6859;BME280;3468;42.824;23.240;2023-05-09T02:10:26;68510.78;;;12.34;100.00
6859;BME280;3468;42.824;23.240;2023-05-09T02:12:54;68466.88;;;12.40;100.00
6859;BME280;3468;42.824;23.240;2023-05-09T02:15:21;68574.47;;;12.54;100.00
6859;BME280;3468;42.824;23.240;2023-05-09T02:17:48;68551.34;;;12.56;100.00
6859;BME280;3468;42.824;23.240;2023-05-09T02:20:16;68493.97;;;12.52;100.00
6859;BME280;3468;42.824;23.240;2023-05-09T02:22:43;68571.91;;;12.54;100.00
6859;BME280;3468;42.824;23.240;2023-05-09T02:25:11;68562.81;;;12.50;100.00
6859;BME280;3468;42.824;23.240;2023-05-09T02:27:41;68549.22;;;12.63;100.00
6859;BME280;3468;42.824;23.240;2023-05-09T02:30:13;68543.00;;;12.62;100.00
6859;BME280;3468;42.824;23.240;2023-05-09T02:32:42;68538.16;;;12.60;100.00
6859;BME280;3468;42.824;23.240;2023-05-09T02:35:10;68511.31;;;12.45;100.00
6859;BME280;3468;42.824;23.240;2023-05-09T02:37:39;68355.25;;;12.03;100.00
6859;BME280;3468;42.824;23.240;2023-05-09T02:40:07;68504.28;;;12.46;100.00
6859;BME280;3468;42.824;23.240;2023-05-09T02:42:35;68517.69;;;12.40;100.00
6859;BME280;3468;42.824;23.240;2023-05-09T02:45:02;68504.38;;;12.24;100.00
6859;BME280;3468;42.824;23.240;2023-05-09T02:47:29;68472.13;;;12.07;100.00
6859;BME280;3468;42.824;23.240;2023-05-09T02:49:56;68481.59;;;12.02;100.00
6859;BME280;3468;42.824;23.240;2023-05-09T02:52:23;68445.34;;;11.82;100.00
6859;BME280;3468;42.824;23.240;2023-05-09T02:54:51;68504.38;;;11.98;100.00
6859;BME280;3468;42.824;23.240;2023-05-09T02:57:18;68493.88;;;11.96;100.00
6859;BME280;3468;42.824;23.240;2023-05-09T02:59:45;68452.16;;;11.84;100.00
6859;BME280;3468;42.824;23.240;2023-05-09T03:02:12;68483.72;;;11.96;100.00
6859;BME280;3468;42.824;23.240;2023-05-09T03:04:38;68494.69;;;11.94;100.00
6859;BME280;3468;42.824;23.240;2023-05-09T03:07:05;68482.34;;;11.97;100.00
6859;BME280;3468;42.824;23.240;2023-05-09T03:09:32;68480.69;;;11.99;100.00
6859;BME280;3468;42.824;23.240;2023-05-09T03:12:00;68479.56;;;11.98;100.00
6859;BME280;3468;42.824;23.240;2023-05-09T03:14:27;68493.34;;;12.10;100.00
6859;BME280;3468;42.824;23.240;2023-05-09T03:16:53;68463.56;;;12.15;100.00
6859;BME280;3468;42.824;23.240;2023-05-09T03:19:20;68473.72;;;12.15;100.00
6859;BME280;3468;42.824;23.240;2023-05-09T03:21:47;68460.75;;;12.17;100.00
6859;BME280;3468;42.824;23.240;2023-05-09T03:24:13;68475.84;;;11.97;100.00
6859;BME280;3468;42.824;23.240;2023-05-09T03:26:40;68522.88;;;12.18;100.00
6859;BME280;3468;42.824;23.240;2023-05-09T03:29:08;68510.19;;;12.18;100.00
6859;BME280;3468;42.824;23.240;2023-05-09T03:31:35;68513.47;;;12.28;100.00
6859;BME280;3468;42.824;23.240;2023-05-09T03:34:01;68502.59;;;12.34;100.00
6859;BME280;3468;42.824;23.240;2023-05-09T03:36:28;68494.16;;;12.35;100.00
6859;BME280;3468;42.824;23.240;2023-05-09T03:38:56;68510.44;;;12.32;100.00
6859;BME280;3468;42.824;23.240;2023-05-09T03:41:23;68511.34;;;12.35;100.00
6859;BME280;3468;42.824;23.240;2023-05-09T03:43:50;68512.97;;;12.32;100.00
6859;BME280;3468;42.824;23.240;2023-05-09T03:46:18;68538.69;;;12.45;100.00
6859;BME280;3468;42.824;23.240;2023-05-09T03:48:44;68522.06;;;12.46;100.00
6859;BME280;3468;42.824;23.240;2023-05-09T03:51:11;68504.97;;;12.40;100.00
6859;BME280;3468;42.824;23.240;2023-05-09T03:53:38;68537.53;;;12.44;100.00
6859;BME280;3468;42.824;23.240;2023-05-09T03:56:05;68547.78;;;12.48;100.00
6859;BME280;3468;42.824;23.240;2023-05-09T03:58:31;68549.06;;;12.54;100.00
6859;BME280;3468;42.824;23.240;2023-05-09T04:00:58;68523.91;;;12.41;100.00
6859;BME280;3468;42.824;23.240;2023-05-09T04:03:27;68539.28;;;12.45;100.00
6859;BME280;3468;42.824;23.240;2023-05-09T04:05:53;68765.50;;;12.28;100.00
6859;BME280;3468;42.824;23.240;2023-05-09T04:08:20;68519.78;;;12.33;100.00
6859;BME280;3468;42.824;23.240;2023-05-09T04:10:48;68558.63;;;12.27;100.00
6859;BME280;3468;42.824;23.240;2023-05-09T04:13:14;68504.47;;;12.29;100.00
6859;BME280;3468;42.824;23.240;2023-05-09T04:15:41;68514.28;;;12.26;100.00
6859;BME280;3468;42.824;23.240;2023-05-09T04:18:08;68533.22;;;12.27;100.00
6859;BME280;3468;42.824;23.240;2023-05-09T04:20:36;68520.38;;;12.34;100.00
6859;BME280;3468;42.824;23.240;2023-05-09T04:23:03;68541.50;;;12.32;100.00
6859;BME280;3468;42.824;23.240;2023-05-09T04:25:30;68527.16;;;12.35;100.00
6859;BME280;3468;42.824;23.240;2023-05-09T04:27:57;68537.69;;;12.38;100.00
6859;BME280;3468;42.824;23.240;2023-05-09T04:30:23;68482.00;;;12.20;100.00
6859;BME280;3468;42.824;23.240;2023-05-09T04:32:51;68568.69;;;12.49;100.00
6859;BME280;3468;42.824;23.240;2023-05-09T04:35:19;68526.19;;;12.54;100.00
6859;BME280;3468;42.824;23.240;2023-05-09T04:37:48;68513.47;;;12.54;100.00
6859;BME280;3468;42.824;23.240;2023-05-09T04:40:14;68566.91;;;12.58;100.00
6859;BME280;3468;42.824;23.240;2023-05-09T04:42:41;68557.19;;;12.65;100.00
6859;BME280;3468;42.824;23.240;2023-05-09T04:45:08;68556.78;;;12.74;100.00
6859;BME280;3468;42.824;23.240;2023-05-09T04:47:36;68588.53;;;12.79;100.00
6859;BME280;3468;42.824;23.240;2023-05-09T04:50:04;68576.88;;;12.86;100.00
6859;BME280;3468;42.824;23.240;2023-05-09T04:52:31;68592.81;;;12.91;100.00
6859;BME280;3468;42.824;23.240;2023-05-09T04:54:59;68553.06;;;12.57;100.00
6859;BME280;3468;42.824;23.240;2023-05-09T04:57:25;68599.84;;;12.91;100.00
6859;BME280;3468;42.824;23.240;2023-05-09T04:59:52;68595.09;;;12.93;100.00
6859;BME280;3468;42.824;23.240;2023-05-09T05:02:19;68590.75;;;13.03;100.00
6859;BME280;3468;42.824;23.240;2023-05-09T05:04:46;68570.88;;;12.83;100.00
6859;BME280;3468;42.824;23.240;2023-05-09T05:07:13;68585.03;;;12.98;100.00
6859;BME280;3468;42.824;23.240;2023-05-09T05:09:40;68560.25;;;12.77;100.00
6859;BME280;3468;42.824;23.240;2023-05-09T05:12:08;68570.69;;;13.16;100.00
6859;BME280;3468;42.824;23.240;2023-05-09T05:14:34;68622.44;;;13.30;100.00
6859;BME280;3468;42.824;23.240;2023-05-09T05:17:01;68639.22;;;13.49;100.00
6859;BME280;3468;42.824;23.240;2023-05-09T05:19:28;68670.50;;;13.84;100.00
6859;BME280;3468;42.824;23.240;2023-05-09T05:21:54;68722.66;;;14.16;100.00
6859;BME280;3468;42.824;23.240;2023-05-09T05:24:21;68762.91;;;14.46;100.00
6859;BME280;3468;42.824;23.240;2023-05-09T05:26:48;68748.25;;;14.51;100.00
6859;BME280;3468;42.824;23.240;2023-05-09T05:29:16;68742.50;;;14.46;100.00
6859;BME280;3468;42.824;23.240;2023-05-09T05:31:43;68750.50;;;14.48;100.00
6859;BME280;3468;42.824;23.240;2023-05-09T05:34:09;68736.75;;;14.56;100.00
6859;BME280;3468;42.824;23.240;2023-05-09T05:36:36;68783.00;;;14.74;100.00
6859;BME280;3468;42.824;23.240;2023-05-09T05:39:03;68791.41;;;14.99;100.00
6859;BME280;3468;42.824;23.240;2023-05-09T05:41:30;68778.50;;;15.21;100.00
6859;BME280;3468;42.824;23.240;2023-05-09T05:43:56;68842.31;;;15.51;100.00
6859;BME280;3468;42.824;23.240;2023-05-09T05:46:24;68883.53;;;15.84;100.00
6859;BME280;3468;42.824;23.240;2023-05-09T05:48:51;68886.75;;;16.05;100.00
6859;BME280;3468;42.824;23.240;2023-05-09T05:51:18;68924.75;;;16.48;100.00
6859;BME280;3468;42.824;23.240;2023-05-09T05:53:45;68984.78;;;16.84;100.00
6859;BME280;3468;42.824;23.240;2023-05-09T05:56:11;68998.75;;;17.20;100.00
6859;BME280;3468;42.824;23.240;2023-05-09T05:58:38;68999.66;;;17.23;100.00
6859;BME280;3468;42.824;23.240;2023-05-09T06:01:05;68953.44;;;16.64;100.00
6859;BME280;3468;42.824;23.240;2023-05-09T06:03:33;68958.00;;;16.48;100.00
6859;BME280;3468;42.824;23.240;2023-05-09T06:05:59;68926.72;;;16.32;100.00
6859;BME280;3468;42.824;23.240;2023-05-09T06:08:26;68862.75;;;15.82;100.00
6859;BME280;3468;42.824;23.240;2023-05-09T06:10:53;68848.34;;;15.54;100.00
6859;BME280;3468;42.824;23.240;2023-05-09T06:13:19;68819.75;;;15.28;100.00
6859;BME280;3468;42.824;23.240;2023-05-09T06:15:46;68845.47;;;15.36;100.00
6859;BME280;3468;42.824;23.240;2023-05-09T06:18:13;68837.97;;;15.45;100.00
6859;BME280;3468;42.824;23.240;2023-05-09T06:20:41;68847.59;;;15.75;100.00
6859;BME280;3468;42.824;23.240;2023-05-09T06:23:08;68883.09;;;16.23;100.00
6859;BME280;3468;42.824;23.240;2023-05-09T06:25:34;68934.22;;;16.54;100.00
6859;BME280;3468;42.824;23.240;2023-05-09T06:28:01;68980.97;;;16.79;100.00
6859;BME280;3468;42.824;23.240;2023-05-09T06:30:28;68982.63;;;16.91;96.83
6859;BME280;3468;42.824;23.240;2023-05-09T06:32:54;68989.31;;;16.84;100.00
6859;BME280;3468;42.824;23.240;2023-05-09T06:35:22;68918.06;;;16.40;98.46
6859;BME280;3468;42.824;23.240;2023-05-09T06:37:50;68927.88;;;16.33;99.62
6859;BME280;3468;42.824;23.240;2023-05-09T06:40:17;68922.59;;;16.40;100.00
6859;BME280;3468;42.824;23.240;2023-05-09T06:42:44;68974.53;;;16.84;98.96
6859;BME280;3468;42.824;23.240;2023-05-09T06:45:10;68984.41;;;17.12;93.85
6859;BME280;3468;42.824;23.240;2023-05-09T06:47:37;69027.84;;;17.23;93.28
6859;BME280;3468;42.824;23.240;2023-05-09T06:50:05;69034.25;;;17.48;91.61
6859;BME280;3468;42.824;23.240;2023-05-09T06:52:32;69071.41;;;17.93;92.91
6859;BME280;3468;42.824;23.240;2023-05-09T06:55:00;69142.50;;;18.19;91.19
6859;BME280;3468;42.824;23.240;2023-05-09T06:57:26;69137.91;;;18.35;89.02
6859;BME280;3468;42.824;23.240;2023-05-09T06:59:53;69143.94;;;18.38;89.99
6859;BME280;3468;42.824;23.240;2023-05-09T07:02:20;69148.00;;;18.41;92.48
6859;BME280;3468;42.824;23.240;2023-05-09T07:04:47;69213.72;;;19.04;87.43
6859;BME280;3468;42.824;23.240;2023-05-09T07:07:14;69218.09;;;19.10;87.20
6859;BME280;3468;42.824;23.240;2023-05-09T07:09:40;69161.44;;;18.62;86.27
6859;BME280;3468;42.824;23.240;2023-05-09T07:12:09;69162.03;;;18.47;90.00
6859;BME280;3468;42.824;23.240;2023-05-09T07:14:35;69127.03;;;18.50;85.19
6859;BME280;3468;42.824;23.240;2023-05-09T07:17:02;69115.19;;;18.22;86.98
6859;BME280;3468;42.824;23.240;2023-05-09T07:19:29;69143.66;;;18.20;86.23
6859;BME280;3468;42.824;23.240;2023-05-09T07:21:55;69164.53;;;18.42;87.21
6859;BME280;3468;42.824;23.240;2023-05-09T07:24:22;69164.50;;;18.58;86.97
6859;BME280;3468;42.824;23.240;2023-05-09T07:26:49;69204.38;;;19.07;84.65
6859;BME280;3468;42.824;23.240;2023-05-09T07:29:17;69169.00;;;18.72;83.71
6859;BME280;3468;42.824;23.240;2023-05-09T07:31:44;69116.63;;;18.06;85.30
6859;BME280;3468;42.824;23.240;2023-05-09T07:34:11;69040.94;;;17.41;89.54
6859;BME280;3468;42.824;23.240;2023-05-09T07:36:37;69018.78;;;17.44;91.85
6859;BME280;3468;42.824;23.240;2023-05-09T07:39:04;69035.91;;;17.45;91.20
6859;BME280;3468;42.824;23.240;2023-05-09T07:41:32;69072.13;;;18.03;90.61
6859;BME280;3468;42.824;23.240;2023-05-09T07:43:59;69173.75;;;18.65;88.30
6859;BME280;3468;42.824;23.240;2023-05-09T07:46:27;69262.31;;;19.26;84.69
6859;BME280;3468;42.824;23.240;2023-05-09T07:48:53;69201.88;;;18.96;83.97
6859;BME280;3468;42.824;23.240;2023-05-09T07:51:20;69135.88;;;18.31;84.71
6859;BME280;3468;42.824;23.240;2023-05-09T07:53:47;69140.69;;;18.13;87.17
6859;BME280;3468;42.824;23.240;2023-05-09T07:56:13;69078.84;;;17.95;90.50
6859;BME280;3468;42.824;23.240;2023-05-09T07:58:40;69072.88;;;17.77;89.61
6859;BME280;3468;42.824;23.240;2023-05-09T08:01:07;69002.50;;;17.06;91.53
6859;BME280;3468;42.824;23.240;2023-05-09T08:03:35;69044.63;;;17.57;92.69
6859;BME280;3468;42.824;23.240;2023-05-09T08:06:02;69032.25;;;17.49;93.25
6859;BME280;3468;42.824;23.240;2023-05-09T08:08:28;68994.50;;;16.88;92.32
6859;BME280;3468;42.824;23.240;2023-05-09T08:10:55;69062.03;;;17.41;92.96
6859;BME280;3468;42.824;23.240;2023-05-09T08:13:22;69105.56;;;17.92;91.74
6859;BME280;3468;42.824;23.240;2023-05-09T08:15:49;69067.00;;;17.68;91.40
6859;BME280;3468;42.824;23.240;2023-05-09T08:18:16;69060.44;;;18.19;88.35
6859;BME280;3468;42.824;23.240;2023-05-09T08:20:44;69151.75;;;18.27;84.62
6859;BME280;3468;42.824;23.240;2023-05-09T08:23:10;69118.13;;;18.29;91.63
6859;BME280;3468;42.824;23.240;2023-05-09T08:25:38;69124.25;;;18.36;88.50
6859;BME280;3468;42.824;23.240;2023-05-09T08:28:04;69147.41;;;18.41;87.97
6859;BME280;3468;42.824;23.240;2023-05-09T08:30:31;69100.00;;;18.16;84.48
6859;BME280;3468;42.824;23.240;2023-05-09T08:32:57;69090.25;;;17.96;85.86
6859;BME280;3468;42.824;23.240;2023-05-09T08:35:24;69072.13;;;17.68;87.87
6859;BME280;3468;42.824;23.240;2023-05-09T08:37:52;69039.03;;;17.46;89.23
6859;BME280;3468;42.824;23.240;2023-05-09T08:40:19;69017.09;;;17.27;88.82
6859;BME280;3468;42.824;23.240;2023-05-09T08:42:47;69049.03;;;17.17;92.71
6859;BME280;3468;42.824;23.240;2023-05-09T08:45:15;68980.03;;;17.06;90.57
6859;BME280;3468;42.824;23.240;2023-05-09T08:47:45;68988.97;;;16.96;91.89
6859;BME280;3468;42.824;23.240;2023-05-09T08:50:12;68971.34;;;16.64;91.83
6859;BME280;3468;42.824;23.240;2023-05-09T08:52:39;68949.22;;;16.67;95.58
6859;BME280;3468;42.824;23.240;2023-05-09T08:55:08;68956.22;;;16.77;92.86
6859;BME280;3468;42.824;23.240;2023-05-09T08:57:35;68950.53;;;16.77;88.04
6859;BME280;3468;42.824;23.240;2023-05-09T09:00:03;68980.75;;;16.65;89.89
6859;BME280;3468;42.824;23.240;2023-05-09T09:02:31;68929.69;;;16.39;93.45
6859;BME280;3468;42.824;23.240;2023-05-09T09:04:58;68920.09;;;16.59;93.44
6859;BME280;3468;42.824;23.240;2023-05-09T09:07:26;68972.00;;;16.69;91.00
6859;BME280;3468;42.824;23.240;2023-05-09T09:09:55;68977.91;;;16.83;88.07
6859;BME280;3468;42.824;23.240;2023-05-09T09:12:25;68983.97;;;17.05;88.45
6859;BME280;3468;42.824;23.240;2023-05-09T09:14:53;69134.38;;;18.27;84.33
6859;BME280;3468;42.824;23.240;2023-05-09T09:17:23;69151.81;;;18.66;86.32
6859;BME280;3468;42.824;23.240;2023-05-09T09:19:54;69177.22;;;18.88;82.18
6859;BME280;3468;42.824;23.240;2023-05-09T09:22:22;69267.84;;;19.52;79.83
6859;BME280;3468;42.824;23.240;2023-05-09T09:24:49;69276.56;;;19.64;77.79
6859;BME280;3468;42.824;23.240;2023-05-09T09:27:16;69275.63;;;19.57;72.98
6859;BME280;3468;42.824;23.240;2023-05-09T09:29:44;69322.00;;;20.01;72.52
6859;BME280;3468;42.824;23.240;2023-05-09T09:32:11;69331.13;;;20.20;65.62
6859;BME280;3468;42.824;23.240;2023-05-09T09:34:38;69314.00;;;20.23;63.17
6859;BME280;3468;42.824;23.240;2023-05-09T09:37:05;69250.34;;;19.68;65.42
6859;BME280;3468;42.824;23.240;2023-05-09T09:39:32;69251.00;;;19.34;69.36
6859;BME280;3468;42.824;23.240;2023-05-09T09:42:09;69252.84;;;19.44;65.18
6859;BME280;3468;42.824;23.240;2023-05-09T09:44:36;69251.59;;;19.34;65.85
6859;BME280;3468;42.824;23.240;2023-05-09T09:47:08;69143.50;;;18.46;67.25
6859;BME280;3468;42.824;23.240;2023-05-09T09:49:35;69122.00;;;18.04;69.00
6859;BME280;3468;42.824;23.240;2023-05-09T09:52:02;69110.41;;;18.09;69.26
6859;BME280;3468;42.824;23.240;2023-05-09T09:54:30;69146.22;;;18.55;67.32
6859;BME280;3468;42.824;23.240;2023-05-09T09:56:57;69189.81;;;18.90;66.46
6859;BME280;3468;42.824;23.240;2023-05-09T09:59:25;69183.25;;;18.91;67.30
6859;BME280;3468;42.824;23.240;2023-05-09T10:01:54;69243.53;;;19.12;64.43
6859;BME280;3468;42.824;23.240;2023-05-09T10:04:23;69159.91;;;18.73;63.99
6859;BME280;3468;42.824;23.240;2023-05-09T10:06:51;69202.34;;;18.53;64.82
6859;BME280;3468;42.824;23.240;2023-05-09T10:09:19;69124.38;;;18.45;64.77
6859;BME280;3468;42.824;23.240;2023-05-09T10:11:48;69180.75;;;18.56;65.07
6859;BME280;3468;42.824;23.240;2023-05-09T10:14:15;69178.13;;;18.71;66.36
6859;BME280;3468;42.824;23.240;2023-05-09T10:16:45;69150.00;;;18.61;66.20
6859;BME280;3468;42.824;23.240;2023-05-09T10:19:12;69112.38;;;18.24;66.55
6859;BME280;3468;42.824;23.240;2023-05-09T10:21:43;69124.50;;;17.99;67.20
6859;BME280;3468;42.824;23.240;2023-05-09T10:24:12;69139.56;;;18.32;68.55
6859;BME280;3468;42.824;23.240;2023-05-09T10:26:42;69133.81;;;18.47;67.34
6859;BME280;3468;42.824;23.240;2023-05-09T10:29:11;69190.19;;;18.77;66.93
6859;BME280;3468;42.824;23.240;2023-05-09T10:31:47;69141.09;;;18.75;65.73
6859;BME280;3468;42.824;23.240;2023-05-09T10:34:17;69181.72;;;18.83;65.58
6859;BME280;3468;42.824;23.240;2023-05-09T10:36:47;69143.16;;;18.24;65.11
6859;BME280;3468;42.824;23.240;2023-05-09T10:39:15;69050.00;;;17.55;66.26
6859;BME280;3468;42.824;23.240;2023-05-09T10:41:42;69077.94;;;17.57;68.24
6859;BME280;3468;42.824;23.240;2023-05-09T10:44:09;69045.09;;;17.34;67.85
6859;BME280;3468;42.824;23.240;2023-05-09T10:46:36;69019.81;;;17.05;69.33
6859;BME280;3468;42.824;23.240;2023-05-09T10:49:03;68991.72;;;17.25;71.83
6859;BME280;3468;42.824;23.240;2023-05-09T10:51:30;69059.69;;;17.55;67.82
6859;BME280;3468;42.824;23.240;2023-05-09T10:53:58;69003.78;;;17.31;67.70
6859;BME280;3468;42.824;23.240;2023-05-09T10:56:28;69053.28;;;17.65;69.91
6859;BME280;3468;42.824;23.240;2023-05-09T10:58:56;69044.50;;;17.48;67.50
6859;BME280;3468;42.824;23.240;2023-05-09T11:01:30;69006.44;;;17.05;67.47
6859;BME280;3468;42.824;23.240;2023-05-09T11:04:00;69063.78;;;17.63;67.60
6859;BME280;3468;42.824;23.240;2023-05-09T11:06:41;68964.91;;;17.04;67.55
6859;BME280;3468;42.824;23.240;2023-05-09T11:09:26;69088.72;;;17.73;67.04
6859;BME280;3468;42.824;23.240;2023-05-09T11:11:55;69064.69;;;17.66;68.68
6859;BME280;3468;42.824;23.240;2023-05-09T11:14:32;69069.56;;;17.68;69.73
6859;BME280;3468;42.824;23.240;2023-05-09T11:17:04;69076.25;;;17.76;70.04
6859;BME280;3468;42.824;23.240;2023-05-09T11:19:36;69078.41;;;17.69;69.04
6859;BME280;3468;42.824;23.240;2023-05-09T11:22:13;69014.97;;;17.19;69.96
6859;BME280;3468;42.824;23.240;2023-05-09T11:24:45;69008.59;;;16.98;71.16
6859;BME280;3468;42.824;23.240;2023-05-09T11:27:18;68981.69;;;16.88;70.85
6859;BME280;3468;42.824;23.240;2023-05-09T11:29:49;68996.50;;;16.72;71.26
6859;BME280;3468;42.824;23.240;2023-05-09T11:32:16;68987.50;;;16.78;72.25
6859;BME280;3468;42.824;23.240;2023-05-09T11:34:43;69045.75;;;16.31;70.89
6859;BME280;3468;42.824;23.240;2023-05-09T11:37:11;68992.88;;;16.76;70.94
6859;BME280;3468;42.824;23.240;2023-05-09T11:39:56;68962.16;;;16.76;71.12
6859;BME280;3468;42.824;23.240;2023-05-09T11:42:23;68955.47;;;16.68;71.97
6859;BME280;3468;42.824;23.240;2023-05-09T11:44:51;68995.50;;;16.80;71.62
6859;BME280;3468;42.824;23.240;2023-05-09T11:47:18;69016.28;;;16.98;73.04
6859;BME280;3468;42.824;23.240;2023-05-09T11:49:45;68992.50;;;17.04;71.48
6859;BME280;3468;42.824;23.240;2023-05-09T11:52:11;68979.09;;;16.84;72.56
6859;BME280;3468;42.824;23.240;2023-05-09T11:54:38;68981.38;;;16.86;71.21
6859;BME280;3468;42.824;23.240;2023-05-09T11:57:07;68995.00;;;16.84;71.02
6859;BME280;3468;42.824;23.240;2023-05-09T11:59:34;68936.13;;;16.49;70.99
6859;BME280;3468;42.824;23.240;2023-05-09T12:02:02;68889.97;;;16.25;73.15
6859;BME280;3468;42.824;23.240;2023-05-09T12:04:29;68914.50;;;16.17;73.88
6859;BME280;3468;42.824;23.240;2023-05-09T12:06:57;69048.72;;;15.97;74.57
6859;BME280;3468;42.824;23.240;2023-05-09T12:09:24;68919.72;;;16.07;75.17
6859;BME280;3468;42.824;23.240;2023-05-09T12:11:51;68954.13;;;16.23;75.69
6859;BME280;3468;42.824;23.240;2023-05-09T12:14:30;68982.09;;;16.45;73.64
6859;BME280;3468;42.824;23.240;2023-05-09T12:16:57;68950.88;;;16.64;72.84
6859;BME280;3468;42.824;23.240;2023-05-09T12:19:24;68947.16;;;16.48;73.12
6859;BME280;3468;42.824;23.240;2023-05-09T12:21:55;68929.28;;;16.32;73.94
6859;BME280;3468;42.824;23.240;2023-05-09T12:24:23;68873.72;;;15.76;73.87
6859;BME280;3468;42.824;23.240;2023-05-09T12:26:51;68881.38;;;15.76;74.08
6859;BME280;3468;42.824;23.240;2023-05-09T12:29:18;68853.97;;;15.50;75.19
6859;BME280;3468;42.824;23.240;2023-05-09T12:31:47;68850.66;;;15.41;75.89
6859;BME280;3468;42.824;23.240;2023-05-09T12:34:14;68820.25;;;15.24;76.17
6859;BME280;3468;42.824;23.240;2023-05-09T12:36:42;68825.91;;;15.09;78.00
6859;BME280;3468;42.824;23.240;2023-05-09T12:39:15;68772.56;;;14.91;77.73
6859;BME280;3468;42.824;23.240;2023-05-09T12:41:43;68764.91;;;14.76;79.71
6859;BME280;3468;42.824;23.240;2023-05-09T12:44:17;68867.94;;;14.57;80.11
6859;BME280;3468;42.824;23.240;2023-05-09T12:46:54;68769.94;;;14.87;78.17
6859;BME280;3468;42.824;23.240;2023-05-09T12:49:21;68810.94;;;14.96;80.83
6859;BME280;3468;42.824;23.240;2023-05-09T12:51:49;68772.88;;;14.79;80.34
6859;BME280;3468;42.824;23.240;2023-05-09T12:54:19;68721.97;;;14.52;80.87
6859;BME280;3468;42.824;23.240;2023-05-09T12:56:46;68719.97;;;14.38;82.28
6859;BME280;3468;42.824;23.240;2023-05-09T12:59:19;68734.94;;;14.35;82.25
6859;BME280;3468;42.824;23.240;2023-05-09T13:01:50;68718.56;;;14.39;83.76
6859;BME280;3468;42.824;23.240;2023-05-09T13:04:19;68773.25;;;14.40;83.76
6859;BME280;3468;42.824;23.240;2023-05-09T13:06:47;68716.75;;;14.33;83.06
6859;BME280;3468;42.824;23.240;2023-05-09T13:09:14;68715.25;;;14.14;83.17